sensor_id;sensor_type;location;lat;lon;timestamp;P1;durP1;ratioP1;P2;durP2;ratioP2
59516;SDS011;45342;42.662;27.718;2023-12-28T00:01:12;5.43;;;4.00;;
59516;SDS011;45342;42.662;27.718;2023-12-28T00:03:37;5.13;;;4.20;;
59516;SDS011;45342;42.662;27.718;2023-12-28T00:06:06;5.80;;;4.22;;
59516;SDS011;45342;42.662;27.718;2023-12-28T00:08:31;6.00;;;4.05;;
59516;SDS011;45342;42.662;27.718;2023-12-28T00:10:57;4.68;;;3.92;;
59516;SDS011;45342;42.662;27.718;2023-12-28T00:13:23;5.55;;;4.18;;
59516;SDS011;45342;42.662;27.718;2023-12-28T00:15:49;4.95;;;3.70;;
59516;SDS011;45342;42.662;27.718;2023-12-28T00:18:15;5.65;;;3.90;;
59516;SDS011;45342;42.662;27.718;2023-12-28T00:20:40;5.38;;;4.00;;
59516;SDS011;45342;42.662;27.718;2023-12-28T00:23:06;5.07;;;3.92;;
59516;SDS011;45342;42.662;27.718;2023-12-28T00:25:32;5.03;;;4.05;;
59516;SDS011;45342;42.662;27.718;2023-12-28T00:27:58;5.80;;;4.00;;
59516;SDS011;45342;42.662;27.718;2023-12-28T00:30:23;5.60;;;4.05;;
59516;SDS011;45342;42.662;27.718;2023-12-28T00:32:49;5.68;;;3.80;;
59516;SDS011;45342;42.662;27.718;2023-12-28T00:35:15;6.10;;;4.50;;
59516;SDS011;45342;42.662;27.718;2023-12-28T00:37:40;5.15;;;4.00;;
59516;SDS011;45342;42.662;27.718;2023-12-28T00:40:06;5.57;;;4.22;;
59516;SDS011;45342;42.662;27.718;2023-12-28T00:44:58;4.72;;;3.78;;
59516;SDS011;45342;42.662;27.718;2023-12-28T00:47:24;5.70;;;3.75;;
59516;SDS011;45342;42.662;27.718;2023-12-28T00:49:50;5.03;;;3.90;;
59516;SDS011;45342;42.662;27.718;2023-12-28T00:52:16;4.65;;;4.07;;
59516;SDS011;45342;42.662;27.718;2023-12-28T00:54:41;5.47;;;4.10;;
59516;SDS011;45342;42.662;27.718;2023-12-28T00:57:07;4.90;;;4.07;;
59516;SDS011;45342;42.662;27.718;2023-12-28T00:59:34;4.65;;;4.07;;
59516;SDS011;45342;42.662;27.718;2023-12-28T01:02:00;5.18;;;4.05;;
59516;SDS011;45342;42.662;27.718;2023-12-28T01:04:25;6.22;;;4.40;;
59516;SDS011;45342;42.662;27.718;2023-12-28T01:06:54;5.10;;;4.15;;
59516;SDS011;45342;42.662;27.718;2023-12-28T01:09:21;4.95;;;3.78;;
59516;SDS011;45342;42.662;27.718;2023-12-28T01:11:46;5.97;;;4.20;;
59516;SDS011;45342;42.662;27.718;2023-12-28T01:14:12;4.97;;;3.92;;
59516;SDS011;45342;42.662;27.718;2023-12-28T01:16:38;4.82;;;3.72;;
59516;SDS011;45342;42.662;27.718;2023-12-28T01:19:05;4.53;;;3.90;;
59516;SDS011;45342;42.662;27.718;2023-12-28T01:23:56;6.30;;;3.83;;
59516;SDS011;45342;42.662;27.718;2023-12-28T01:26:22;4.97;;;4.00;;
59516;SDS011;45342;42.662;27.718;2023-12-28T01:28:48;5.38;;;4.13;;
59516;SDS011;45342;42.662;27.718;2023-12-28T01:31:13;5.43;;;3.88;;
59516;SDS011;45342;42.662;27.718;2023-12-28T01:33:39;5.13;;;4.13;;
59516;SDS011;45342;42.662;27.718;2023-12-28T01:36:17;6.15;;;3.75;;
59516;SDS011;45342;42.662;27.718;2023-12-28T01:38:43;5.20;;;3.90;;
59516;SDS011;45342;42.662;27.718;2023-12-28T01:41:09;5.20;;;3.78;;
59516;SDS011;45342;42.662;27.718;2023-12-28T01:43:35;4.47;;;3.75;;
59516;SDS011;45342;42.662;27.718;2023-12-28T01:46:01;4.47;;;3.70;;
59516;SDS011;45342;42.662;27.718;2023-12-28T01:50:53;5.75;;;4.00;;
59516;SDS011;45342;42.662;27.718;2023-12-28T01:55:45;4.85;;;3.60;;
59516;SDS011;45342;42.662;27.718;2023-12-28T01:58:11;5.32;;;3.78;;
59516;SDS011;45342;42.662;27.718;2023-12-28T02:03:05;5.63;;;3.85;;
59516;SDS011;45342;42.662;27.718;2023-12-28T02:05:32;4.97;;;3.92;;
59516;SDS011;45342;42.662;27.718;2023-12-28T02:07:58;4.57;;;3.85;;
59516;SDS011;45342;42.662;27.718;2023-12-28T02:10:24;4.90;;;3.90;;
59516;SDS011;45342;42.662;27.718;2023-12-28T02:12:50;4.43;;;3.67;;
59516;SDS011;45342;42.662;27.718;2023-12-28T02:15:18;4.70;;;3.50;;
59516;SDS011;45342;42.662;27.718;2023-12-28T02:17:53;6.53;;;4.18;;
59516;SDS011;45342;42.662;27.718;2023-12-28T02:20:52;4.20;;;3.60;;
59516;SDS011;45342;42.662;27.718;2023-12-28T02:25:45;5.07;;;3.93;;
59516;SDS011;45342;42.662;27.718;2023-12-28T02:28:10;5.75;;;3.80;;
59516;SDS011;45342;42.662;27.718;2023-12-28T02:30:36;5.38;;;4.00;;
59516;SDS011;45342;42.662;27.718;2023-12-28T02:33:11;5.70;;;4.55;;
59516;SDS011;45342;42.662;27.718;2023-12-28T02:35:45;5.47;;;3.88;;
59516;SDS011;45342;42.662;27.718;2023-12-28T02:38:16;4.75;;;3.63;;
59516;SDS011;45342;42.662;27.718;2023-12-28T02:40:43;4.60;;;3.55;;
59516;SDS011;45342;42.662;27.718;2023-12-28T02:43:10;5.57;;;3.80;;
59516;SDS011;45342;42.662;27.718;2023-12-28T02:45:37;5.50;;;4.00;;
59516;SDS011;45342;42.662;27.718;2023-12-28T02:48:03;6.28;;;4.15;;
59516;SDS011;45342;42.662;27.718;2023-12-28T02:50:30;6.43;;;4.25;;
59516;SDS011;45342;42.662;27.718;2023-12-28T02:52:56;5.38;;;3.83;;
59516;SDS011;45342;42.662;27.718;2023-12-28T02:55:22;5.72;;;4.22;;
59516;SDS011;45342;42.662;27.718;2023-12-28T02:57:54;4.88;;;3.80;;
59516;SDS011;45342;42.662;27.718;2023-12-28T03:00:21;4.43;;;3.70;;
59516;SDS011;45342;42.662;27.718;2023-12-28T03:05:12;6.15;;;3.92;;
59516;SDS011;45342;42.662;27.718;2023-12-28T03:07:38;5.05;;;3.83;;
59516;SDS011;45342;42.662;27.718;2023-12-28T03:10:05;4.57;;;3.63;;
59516;SDS011;45342;42.662;27.718;2023-12-28T03:12:32;4.68;;;3.78;;
59516;SDS011;45342;42.662;27.718;2023-12-28T03:14:58;4.53;;;3.45;;
59516;SDS011;45342;42.662;27.718;2023-12-28T03:17:23;4.72;;;3.63;;
59516;SDS011;45342;42.662;27.718;2023-12-28T03:19:49;5.55;;;3.97;;
59516;SDS011;45342;42.662;27.718;2023-12-28T03:22:15;6.60;;;4.05;;
59516;SDS011;45342;42.662;27.718;2023-12-28T03:24:42;5.45;;;3.72;;
59516;SDS011;45342;42.662;27.718;2023-12-28T03:27:08;4.55;;;3.55;;
59516;SDS011;45342;42.662;27.718;2023-12-28T03:29:34;5.20;;;3.95;;
59516;SDS011;45342;42.662;27.718;2023-12-28T03:32:00;4.45;;;3.80;;
59516;SDS011;45342;42.662;27.718;2023-12-28T03:34:27;4.22;;;3.22;;
59516;SDS011;45342;42.662;27.718;2023-12-28T03:36:55;5.20;;;3.63;;
59516;SDS011;45342;42.662;27.718;2023-12-28T03:39:22;5.70;;;3.63;;
59516;SDS011;45342;42.662;27.718;2023-12-28T03:41:48;5.22;;;3.35;;
59516;SDS011;45342;42.662;27.718;2023-12-28T03:44:14;4.43;;;3.28;;
59516;SDS011;45342;42.662;27.718;2023-12-28T03:46:40;5.25;;;3.88;;
59516;SDS011;45342;42.662;27.718;2023-12-28T03:49:05;5.55;;;3.70;;
59516;SDS011;45342;42.662;27.718;2023-12-28T03:51:31;4.65;;;3.60;;
59516;SDS011;45342;42.662;27.718;2023-12-28T03:53:57;4.65;;;3.58;;
59516;SDS011;45342;42.662;27.718;2023-12-28T03:56:23;5.88;;;3.58;;
59516;SDS011;45342;42.662;27.718;2023-12-28T03:58:50;4.70;;;3.58;;
59516;SDS011;45342;42.662;27.718;2023-12-28T04:01:20;4.45;;;3.38;;
59516;SDS011;45342;42.662;27.718;2023-12-28T04:03:47;5.15;;;3.70;;
59516;SDS011;45342;42.662;27.718;2023-12-28T04:06:14;4.25;;;3.40;;
59516;SDS011;45342;42.662;27.718;2023-12-28T04:08:41;4.93;;;3.70;;
59516;SDS011;45342;42.662;27.718;2023-12-28T04:11:07;5.20;;;3.60;;
59516;SDS011;45342;42.662;27.718;2023-12-28T04:15:59;4.47;;;3.42;;
59516;SDS011;45342;42.662;27.718;2023-12-28T04:18:25;4.38;;;3.28;;
59516;SDS011;45342;42.662;27.718;2023-12-28T04:20:50;3.58;;;3.08;;
59516;SDS011;45342;42.662;27.718;2023-12-28T04:23:16;4.45;;;3.38;;
59516;SDS011;45342;42.662;27.718;2023-12-28T04:25:42;4.70;;;3.50;;
59516;SDS011;45342;42.662;27.718;2023-12-28T04:28:07;3.83;;;3.28;;
59516;SDS011;45342;42.662;27.718;2023-12-28T04:30:34;5.97;;;4.00;;
59516;SDS011;45342;42.662;27.718;2023-12-28T04:33:01;4.40;;;3.35;;
59516;SDS011;45342;42.662;27.718;2023-12-28T04:35:27;4.43;;;3.33;;
59516;SDS011;45342;42.662;27.718;2023-12-28T04:40:19;4.10;;;3.30;;
59516;SDS011;45342;42.662;27.718;2023-12-28T04:42:45;4.90;;;3.50;;
59516;SDS011;45342;42.662;27.718;2023-12-28T04:45:10;4.72;;;3.50;;
59516;SDS011;45342;42.662;27.718;2023-12-28T04:47:36;4.70;;;3.58;;
59516;SDS011;45342;42.662;27.718;2023-12-28T04:50:06;4.05;;;3.28;;
59516;SDS011;45342;42.662;27.718;2023-12-28T04:52:32;4.47;;;3.63;;
59516;SDS011;45342;42.662;27.718;2023-12-28T04:54:58;3.97;;;3.17;;
59516;SDS011;45342;42.662;27.718;2023-12-28T04:57:23;4.22;;;3.20;;
59516;SDS011;45342;42.662;27.718;2023-12-28T04:59:51;4.10;;;3.38;;
59516;SDS011;45342;42.662;27.718;2023-12-28T05:02:17;3.60;;;3.20;;
59516;SDS011;45342;42.662;27.718;2023-12-28T05:04:42;4.45;;;3.28;;
59516;SDS011;45342;42.662;27.718;2023-12-28T05:07:08;3.80;;;3.35;;
59516;SDS011;45342;42.662;27.718;2023-12-28T05:09:34;4.15;;;3.13;;
59516;SDS011;45342;42.662;27.718;2023-12-28T05:12:00;5.47;;;3.72;;
59516;SDS011;45342;42.662;27.718;2023-12-28T05:14:25;6.65;;;4.07;;
59516;SDS011;45342;42.662;27.718;2023-12-28T05:16:51;7.30;;;4.20;;
59516;SDS011;45342;42.662;27.718;2023-12-28T05:19:17;7.38;;;4.72;;
59516;SDS011;45342;42.662;27.718;2023-12-28T05:21:42;7.93;;;4.45;;
59516;SDS011;45342;42.662;27.718;2023-12-28T05:24:08;7.32;;;3.92;;
59516;SDS011;45342;42.662;27.718;2023-12-28T05:26:34;5.13;;;3.47;;
59516;SDS011;45342;42.662;27.718;2023-12-28T05:29:03;5.47;;;3.60;;
59516;SDS011;45342;42.662;27.718;2023-12-28T05:31:28;4.90;;;3.45;;
59516;SDS011;45342;42.662;27.718;2023-12-28T05:33:54;4.30;;;3.40;;
59516;SDS011;45342;42.662;27.718;2023-12-28T05:36:20;6.40;;;3.60;;
59516;SDS011;45342;42.662;27.718;2023-12-28T05:38:46;5.15;;;3.88;;
59516;SDS011;45342;42.662;27.718;2023-12-28T05:41:11;5.82;;;4.07;;
59516;SDS011;45342;42.662;27.718;2023-12-28T05:43:37;6.57;;;4.00;;
59516;SDS011;45342;42.662;27.718;2023-12-28T05:46:04;6.70;;;4.18;;
59516;SDS011;45342;42.662;27.718;2023-12-28T05:48:32;7.28;;;4.85;;
59516;SDS011;45342;42.662;27.718;2023-12-28T05:50:58;8.23;;;4.50;;
59516;SDS011;45342;42.662;27.718;2023-12-28T05:53:24;6.50;;;4.00;;
59516;SDS011;45342;42.662;27.718;2023-12-28T05:55:50;5.40;;;3.75;;
59516;SDS011;45342;42.662;27.718;2023-12-28T05:58:15;4.82;;;3.72;;
59516;SDS011;45342;42.662;27.718;2023-12-28T06:00:41;5.30;;;4.00;;
59516;SDS011;45342;42.662;27.718;2023-12-28T06:03:08;6.38;;;3.72;;
59516;SDS011;45342;42.662;27.718;2023-12-28T06:05:33;5.45;;;3.92;;
59516;SDS011;45342;42.662;27.718;2023-12-28T06:07:59;5.50;;;3.75;;
59516;SDS011;45342;42.662;27.718;2023-12-28T06:10:25;6.10;;;4.47;;
59516;SDS011;45342;42.662;27.718;2023-12-28T06:12:51;5.85;;;4.18;;
59516;SDS011;45342;42.662;27.718;2023-12-28T06:15:16;6.28;;;4.47;;
59516;SDS011;45342;42.662;27.718;2023-12-28T06:17:42;7.25;;;4.53;;
59516;SDS011;45342;42.662;27.718;2023-12-28T06:20:08;6.75;;;4.80;;
59516;SDS011;45342;42.662;27.718;2023-12-28T06:22:38;8.07;;;5.20;;
59516;SDS011;45342;42.662;27.718;2023-12-28T06:25:04;8.75;;;5.38;;
59516;SDS011;45342;42.662;27.718;2023-12-28T06:27:30;7.05;;;4.93;;
59516;SDS011;45342;42.662;27.718;2023-12-28T06:29:56;6.60;;;4.57;;
59516;SDS011;45342;42.662;27.718;2023-12-28T06:32:21;6.93;;;4.82;;
59516;SDS011;45342;42.662;27.718;2023-12-28T06:34:47;7.72;;;4.93;;
59516;SDS011;45342;42.662;27.718;2023-12-28T06:37:15;7.63;;;5.00;;
59516;SDS011;45342;42.662;27.718;2023-12-28T06:42:09;6.15;;;4.20;;
59516;SDS011;45342;42.662;27.718;2023-12-28T06:44:35;7.82;;;5.10;;
59516;SDS011;45342;42.662;27.718;2023-12-28T06:47:00;5.80;;;4.35;;
59516;SDS011;45342;42.662;27.718;2023-12-28T06:49:26;6.78;;;4.50;;
59516;SDS011;45342;42.662;27.718;2023-12-28T06:51:52;6.07;;;4.40;;
59516;SDS011;45342;42.662;27.718;2023-12-28T06:54:17;5.55;;;4.43;;
59516;SDS011;45342;42.662;27.718;2023-12-28T06:56:43;5.47;;;3.85;;
59516;SDS011;45342;42.662;27.718;2023-12-28T06:59:09;6.45;;;4.40;;
59516;SDS011;45342;42.662;27.718;2023-12-28T07:01:38;6.07;;;4.20;;
59516;SDS011;45342;42.662;27.718;2023-12-28T07:04:04;6.40;;;4.28;;
59516;SDS011;45342;42.662;27.718;2023-12-28T07:06:30;7.00;;;4.68;;
59516;SDS011;45342;42.662;27.718;2023-12-28T07:08:55;5.32;;;4.22;;
59516;SDS011;45342;42.662;27.718;2023-12-28T07:11:21;6.40;;;4.45;;
59516;SDS011;45342;42.662;27.718;2023-12-28T07:13:47;5.60;;;4.07;;
59516;SDS011;45342;42.662;27.718;2023-12-28T07:16:13;6.75;;;4.82;;
59516;SDS011;45342;42.662;27.718;2023-12-28T07:18:39;6.35;;;4.40;;
59516;SDS011;45342;42.662;27.718;2023-12-28T07:21:05;5.90;;;4.30;;
59516;SDS011;45342;42.662;27.718;2023-12-28T07:25:57;6.13;;;4.70;;
59516;SDS011;45342;42.662;27.718;2023-12-28T07:28:23;8.45;;;5.32;;
59516;SDS011;45342;42.662;27.718;2023-12-28T07:30:49;6.50;;;4.80;;
59516;SDS011;45342;42.662;27.718;2023-12-28T07:33:14;8.23;;;5.05;;
59516;SDS011;45342;42.662;27.718;2023-12-28T07:35:40;6.85;;;4.78;;
59516;SDS011;45342;42.662;27.718;2023-12-28T07:38:06;6.75;;;4.50;;
59516;SDS011;45342;42.662;27.718;2023-12-28T07:40:31;6.32;;;4.50;;
59516;SDS011;45342;42.662;27.718;2023-12-28T07:42:57;7.18;;;4.88;;
59516;SDS011;45342;42.662;27.718;2023-12-28T07:45:23;7.97;;;4.93;;
59516;SDS011;45342;42.662;27.718;2023-12-28T07:50:16;5.75;;;4.53;;
59516;SDS011;45342;42.662;27.718;2023-12-28T07:52:45;6.97;;;5.00;;
59516;SDS011;45342;42.662;27.718;2023-12-28T07:55:12;7.78;;;5.00;;
59516;SDS011;45342;42.662;27.718;2023-12-28T07:57:37;7.40;;;5.28;;
59516;SDS011;45342;42.662;27.718;2023-12-28T08:00:04;7.70;;;5.45;;
59516;SDS011;45342;42.662;27.718;2023-12-28T08:02:30;7.25;;;5.28;;
59516;SDS011;45342;42.662;27.718;2023-12-28T08:04:56;7.63;;;5.28;;
59516;SDS011;45342;42.662;27.718;2023-12-28T08:07:22;7.10;;;5.38;;
59516;SDS011;45342;42.662;27.718;2023-12-28T08:09:48;6.15;;;4.75;;
59516;SDS011;45342;42.662;27.718;2023-12-28T08:12:14;6.10;;;4.80;;
59516;SDS011;45342;42.662;27.718;2023-12-28T08:14:40;7.63;;;5.15;;
59516;SDS011;45342;42.662;27.718;2023-12-28T08:17:05;6.43;;;4.63;;
59516;SDS011;45342;42.662;27.718;2023-12-28T08:19:31;6.35;;;4.88;;
59516;SDS011;45342;42.662;27.718;2023-12-28T08:21:57;6.78;;;4.72;;
59516;SDS011;45342;42.662;27.718;2023-12-28T08:24:23;6.82;;;4.78;;
59516;SDS011;45342;42.662;27.718;2023-12-28T08:26:48;6.53;;;4.47;;
59516;SDS011;45342;42.662;27.718;2023-12-28T08:29:14;6.15;;;4.82;;
59516;SDS011;45342;42.662;27.718;2023-12-28T08:31:40;8.45;;;4.97;;
59516;SDS011;45342;42.662;27.718;2023-12-28T08:34:06;6.45;;;4.80;;
59516;SDS011;45342;42.662;27.718;2023-12-28T08:36:31;6.15;;;4.60;;
59516;SDS011;45342;42.662;27.718;2023-12-28T08:38:57;6.18;;;4.40;;
59516;SDS011;45342;42.662;27.718;2023-12-28T08:41:24;6.35;;;4.50;;
59516;SDS011;45342;42.662;27.718;2023-12-28T08:43:50;6.78;;;4.82;;
59516;SDS011;45342;42.662;27.718;2023-12-28T08:46:17;5.28;;;4.40;;
59516;SDS011;45342;42.662;27.718;2023-12-28T08:48:42;7.22;;;4.60;;
59516;SDS011;45342;42.662;27.718;2023-12-28T08:51:12;7.43;;;5.18;;
59516;SDS011;45342;42.662;27.718;2023-12-28T08:53:40;5.43;;;4.47;;
59516;SDS011;45342;42.662;27.718;2023-12-28T08:56:39;7.90;;;4.78;;
59516;SDS011;45342;42.662;27.718;2023-12-28T08:58:58;5.50;;;4.35;;
59516;SDS011;45342;42.662;27.718;2023-12-28T09:01:24;6.72;;;4.82;;
59516;SDS011;45342;42.662;27.718;2023-12-28T09:03:54;6.00;;;4.78;;
59516;SDS011;45342;42.662;27.718;2023-12-28T09:06:20;6.80;;;4.45;;
59516;SDS011;45342;42.662;27.718;2023-12-28T09:11:16;7.22;;;4.80;;
59516;SDS011;45342;42.662;27.718;2023-12-28T09:13:42;7.32;;;4.90;;
59516;SDS011;45342;42.662;27.718;2023-12-28T09:16:10;6.07;;;4.10;;
59516;SDS011;45342;42.662;27.718;2023-12-28T09:18:37;5.85;;;4.15;;
59516;SDS011;45342;42.662;27.718;2023-12-28T09:21:03;5.15;;;4.00;;
59516;SDS011;45342;42.662;27.718;2023-12-28T09:23:33;6.57;;;4.53;;
59516;SDS011;45342;42.662;27.718;2023-12-28T09:26:02;5.82;;;4.50;;
59516;SDS011;45342;42.662;27.718;2023-12-28T09:28:29;5.40;;;4.13;;
59516;SDS011;45342;42.662;27.718;2023-12-28T09:33:21;5.47;;;4.15;;
59516;SDS011;45342;42.662;27.718;2023-12-28T09:35:47;5.15;;;4.35;;
59516;SDS011;45342;42.662;27.718;2023-12-28T09:38:13;5.45;;;4.05;;
59516;SDS011;45342;42.662;27.718;2023-12-28T09:40:42;6.00;;;4.20;;
59516;SDS011;45342;42.662;27.718;2023-12-28T09:46:05;6.95;;;4.32;;
59516;SDS011;45342;42.662;27.718;2023-12-28T09:48:32;5.97;;;4.50;;
59516;SDS011;45342;42.662;27.718;2023-12-28T09:50:58;6.10;;;4.07;;
59516;SDS011;45342;42.662;27.718;2023-12-28T09:53:25;5.20;;;3.83;;
59516;SDS011;45342;42.662;27.718;2023-12-28T09:58:19;5.85;;;4.18;;
59516;SDS011;45342;42.662;27.718;2023-12-28T10:00:47;6.78;;;4.50;;
59516;SDS011;45342;42.662;27.718;2023-12-28T10:03:14;4.47;;;3.65;;
59516;SDS011;45342;42.662;27.718;2023-12-28T10:05:46;6.40;;;4.30;;
59516;SDS011;45342;42.662;27.718;2023-12-28T10:08:12;5.65;;;3.95;;
59516;SDS011;45342;42.662;27.718;2023-12-28T10:10:39;6.30;;;3.90;;
59516;SDS011;45342;42.662;27.718;2023-12-28T10:13:08;5.35;;;4.00;;
59516;SDS011;45342;42.662;27.718;2023-12-28T10:15:42;5.22;;;4.10;;
59516;SDS011;45342;42.662;27.718;2023-12-28T10:18:08;5.35;;;4.07;;
59516;SDS011;45342;42.662;27.718;2023-12-28T10:20:34;5.90;;;4.25;;
59516;SDS011;45342;42.662;27.718;2023-12-28T10:23:00;6.57;;;4.00;;
59516;SDS011;45342;42.662;27.718;2023-12-28T10:25:26;5.72;;;4.03;;
59516;SDS011;45342;42.662;27.718;2023-12-28T10:27:53;7.05;;;4.35;;
59516;SDS011;45342;42.662;27.718;2023-12-28T10:30:21;5.90;;;3.88;;
59516;SDS011;45342;42.662;27.718;2023-12-28T10:32:47;5.90;;;3.90;;
59516;SDS011;45342;42.662;27.718;2023-12-28T10:35:13;5.95;;;4.35;;
59516;SDS011;45342;42.662;27.718;2023-12-28T10:37:39;5.63;;;4.03;;
59516;SDS011;45342;42.662;27.718;2023-12-28T10:40:11;5.60;;;4.03;;
59516;SDS011;45342;42.662;27.718;2023-12-28T10:42:46;5.10;;;3.80;;
59516;SDS011;45342;42.662;27.718;2023-12-28T10:45:12;5.47;;;4.00;;
59516;SDS011;45342;42.662;27.718;2023-12-28T10:47:42;6.22;;;3.88;;
59516;SDS011;45342;42.662;27.718;2023-12-28T10:50:08;4.78;;;4.03;;
59516;SDS011;45342;42.662;27.718;2023-12-28T10:52:36;5.88;;;4.10;;
59516;SDS011;45342;42.662;27.718;2023-12-28T10:57:37;5.65;;;4.20;;
59516;SDS011;45342;42.662;27.718;2023-12-28T11:00:16;6.68;;;3.80;;
59516;SDS011;45342;42.662;27.718;2023-12-28T11:02:47;5.55;;;4.00;;
59516;SDS011;45342;42.662;27.718;2023-12-28T11:05:17;5.97;;;4.20;;
59516;SDS011;45342;42.662;27.718;2023-12-28T11:07:45;5.03;;;3.85;;
59516;SDS011;45342;42.662;27.718;2023-12-28T11:10:11;6.60;;;4.53;;
59516;SDS011;45342;42.662;27.718;2023-12-28T11:12:39;6.28;;;4.15;;
59516;SDS011;45342;42.662;27.718;2023-12-28T11:15:06;6.13;;;4.22;;
59516;SDS011;45342;42.662;27.718;2023-12-28T11:17:33;5.47;;;4.20;;
59516;SDS011;45342;42.662;27.718;2023-12-28T11:19:59;6.05;;;4.13;;
59516;SDS011;45342;42.662;27.718;2023-12-28T11:22:25;4.72;;;3.83;;
59516;SDS011;45342;42.662;27.718;2023-12-28T11:24:52;6.40;;;4.20;;
59516;SDS011;45342;42.662;27.718;2023-12-28T11:27:18;4.93;;;3.90;;
59516;SDS011;45342;42.662;27.718;2023-12-28T11:29:44;5.43;;;4.00;;
59516;SDS011;45342;42.662;27.718;2023-12-28T11:32:13;4.97;;;3.90;;
59516;SDS011;45342;42.662;27.718;2023-12-28T11:34:39;5.82;;;3.90;;
59516;SDS011;45342;42.662;27.718;2023-12-28T11:37:16;5.43;;;3.97;;
59516;SDS011;45342;42.662;27.718;2023-12-28T11:39:45;6.00;;;4.03;;
59516;SDS011;45342;42.662;27.718;2023-12-28T11:42:11;5.40;;;3.97;;
59516;SDS011;45342;42.662;27.718;2023-12-28T11:44:38;6.72;;;4.60;;
59516;SDS011;45342;42.662;27.718;2023-12-28T11:47:12;6.40;;;4.20;;
59516;SDS011;45342;42.662;27.718;2023-12-28T11:49:48;7.00;;;4.60;;
59516;SDS011;45342;42.662;27.718;2023-12-28T11:52:23;6.28;;;4.45;;
59516;SDS011;45342;42.662;27.718;2023-12-28T11:54:52;5.00;;;3.92;;
59516;SDS011;45342;42.662;27.718;2023-12-28T11:57:18;5.97;;;4.10;;
59516;SDS011;45342;42.662;27.718;2023-12-28T11:59:44;6.63;;;4.50;;
59516;SDS011;45342;42.662;27.718;2023-12-28T12:02:11;5.75;;;3.95;;
59516;SDS011;45342;42.662;27.718;2023-12-28T12:04:37;5.18;;;4.18;;
59516;SDS011;45342;42.662;27.718;2023-12-28T12:07:03;6.00;;;4.00;;
59516;SDS011;45342;42.662;27.718;2023-12-28T12:09:29;6.55;;;3.92;;
59516;SDS011;45342;42.662;27.718;2023-12-28T12:12:01;5.47;;;4.10;;
59516;SDS011;45342;42.662;27.718;2023-12-28T12:14:28;5.28;;;3.97;;
59516;SDS011;45342;42.662;27.718;2023-12-28T12:16:54;6.70;;;4.35;;
59516;SDS011;45342;42.662;27.718;2023-12-28T12:19:23;5.15;;;4.07;;
59516;SDS011;45342;42.662;27.718;2023-12-28T12:21:52;5.07;;;3.70;;
59516;SDS011;45342;42.662;27.718;2023-12-28T12:24:18;6.38;;;4.10;;
59516;SDS011;45342;42.662;27.718;2023-12-28T12:26:49;4.53;;;3.67;;
59516;SDS011;45342;42.662;27.718;2023-12-28T12:29:16;5.88;;;4.15;;
59516;SDS011;45342;42.662;27.718;2023-12-28T12:31:42;5.53;;;3.90;;
59516;SDS011;45342;42.662;27.718;2023-12-28T12:34:15;5.55;;;4.00;;
59516;SDS011;45342;42.662;27.718;2023-12-28T12:36:41;4.93;;;3.67;;
59516;SDS011;45342;42.662;27.718;2023-12-28T12:39:09;5.72;;;3.70;;
59516;SDS011;45342;42.662;27.718;2023-12-28T12:41:36;5.43;;;3.83;;
59516;SDS011;45342;42.662;27.718;2023-12-28T12:44:03;6.20;;;4.28;;
59516;SDS011;45342;42.662;27.718;2023-12-28T12:46:29;5.93;;;4.00;;
59516;SDS011;45342;42.662;27.718;2023-12-28T12:48:56;6.43;;;3.80;;
59516;SDS011;45342;42.662;27.718;2023-12-28T12:51:22;5.22;;;3.90;;
59516;SDS011;45342;42.662;27.718;2023-12-28T12:53:49;4.78;;;3.78;;
59516;SDS011;45342;42.662;27.718;2023-12-28T12:56:14;5.32;;;3.80;;
59516;SDS011;45342;42.662;27.718;2023-12-28T12:58:43;6.15;;;3.90;;
59516;SDS011;45342;42.662;27.718;2023-12-28T13:01:12;4.05;;;3.65;;
59516;SDS011;45342;42.662;27.718;2023-12-28T13:03:37;6.72;;;3.42;;
59516;SDS011;45342;42.662;27.718;2023-12-28T13:06:05;4.72;;;3.70;;
59516;SDS011;45342;42.662;27.718;2023-12-28T13:08:31;5.15;;;3.85;;
59516;SDS011;45342;42.662;27.718;2023-12-28T13:10:56;5.60;;;4.07;;
59516;SDS011;45342;42.662;27.718;2023-12-28T13:13:23;4.70;;;3.63;;
59516;SDS011;45342;42.662;27.718;2023-12-28T13:15:49;4.88;;;3.55;;
59516;SDS011;45342;42.662;27.718;2023-12-28T13:18:14;4.82;;;4.18;;
59516;SDS011;45342;42.662;27.718;2023-12-28T13:20:40;5.47;;;4.00;;
59516;SDS011;45342;42.662;27.718;2023-12-28T13:23:09;5.45;;;4.00;;
59516;SDS011;45342;42.662;27.718;2023-12-28T13:25:34;5.35;;;4.15;;
59516;SDS011;45342;42.662;27.718;2023-12-28T13:28:00;4.65;;;3.70;;
59516;SDS011;45342;42.662;27.718;2023-12-28T13:30:26;5.13;;;4.05;;
59516;SDS011;45342;42.662;27.718;2023-12-28T13:32:54;5.57;;;4.07;;
59516;SDS011;45342;42.662;27.718;2023-12-28T13:35:23;5.05;;;3.95;;
59516;SDS011;45342;42.662;27.718;2023-12-28T13:37:49;5.70;;;4.20;;
59516;SDS011;45342;42.662;27.718;2023-12-28T13:40:15;5.65;;;4.05;;
59516;SDS011;45342;42.662;27.718;2023-12-28T13:42:41;6.70;;;3.80;;
59516;SDS011;45342;42.662;27.718;2023-12-28T13:45:07;5.95;;;3.95;;
59516;SDS011;45342;42.662;27.718;2023-12-28T13:49:58;6.05;;;4.28;;
59516;SDS011;45342;42.662;27.718;2023-12-28T13:52:24;5.15;;;3.83;;
59516;SDS011;45342;42.662;27.718;2023-12-28T13:54:50;5.68;;;4.20;;
59516;SDS011;45342;42.662;27.718;2023-12-28T13:57:16;5.38;;;3.90;;
59516;SDS011;45342;42.662;27.718;2023-12-28T13:59:41;6.40;;;4.43;;
59516;SDS011;45342;42.662;27.718;2023-12-28T14:02:07;6.45;;;4.22;;
59516;SDS011;45342;42.662;27.718;2023-12-28T14:04:33;5.35;;;4.15;;
59516;SDS011;45342;42.662;27.718;2023-12-28T14:06:59;4.82;;;3.70;;
59516;SDS011;45342;42.662;27.718;2023-12-28T14:09:26;5.88;;;4.40;;
59516;SDS011;45342;42.662;27.718;2023-12-28T14:11:52;5.35;;;3.90;;
59516;SDS011;45342;42.662;27.718;2023-12-28T14:14:17;5.47;;;4.32;;
59516;SDS011;45342;42.662;27.718;2023-12-28T14:16:43;5.97;;;4.32;;
59516;SDS011;45342;42.662;27.718;2023-12-28T14:21:36;5.50;;;4.18;;
59516;SDS011;45342;42.662;27.718;2023-12-28T14:24:03;7.32;;;4.55;;
59516;SDS011;45342;42.662;27.718;2023-12-28T14:26:29;5.85;;;3.90;;
59516;SDS011;45342;42.662;27.718;2023-12-28T14:28:58;5.38;;;4.07;;
59516;SDS011;45342;42.662;27.718;2023-12-28T14:31:24;5.72;;;4.10;;
59516;SDS011;45342;42.662;27.718;2023-12-28T14:33:53;6.03;;;4.47;;
59516;SDS011;45342;42.662;27.718;2023-12-28T14:39:02;11.38;;;7.20;;
59516;SDS011;45342;42.662;27.718;2023-12-28T14:44:10;8.32;;;5.88;;
59516;SDS011;45342;42.662;27.718;2023-12-28T14:46:36;8.98;;;5.72;;
59516;SDS011;45342;42.662;27.718;2023-12-28T14:49:01;7.25;;;5.20;;
59516;SDS011;45342;42.662;27.718;2023-12-28T14:51:28;7.15;;;5.07;;
59516;SDS011;45342;42.662;27.718;2023-12-28T14:53:54;8.02;;;5.63;;
59516;SDS011;45342;42.662;27.718;2023-12-28T14:56:20;8.68;;;5.65;;
59516;SDS011;45342;42.662;27.718;2023-12-28T14:58:46;9.43;;;6.05;;
59516;SDS011;45342;42.662;27.718;2023-12-28T15:01:16;8.57;;;5.47;;
59516;SDS011;45342;42.662;27.718;2023-12-28T15:03:45;10.00;;;5.90;;
59516;SDS011;45342;42.662;27.718;2023-12-28T15:06:12;10.80;;;6.53;;
59516;SDS011;45342;42.662;27.718;2023-12-28T15:08:38;9.75;;;6.30;;
59516;SDS011;45342;42.662;27.718;2023-12-28T15:11:05;7.43;;;5.60;;
59516;SDS011;45342;42.662;27.718;2023-12-28T15:13:38;7.53;;;5.55;;
59516;SDS011;45342;42.662;27.718;2023-12-28T15:16:06;7.60;;;5.43;;
59516;SDS011;45342;42.662;27.718;2023-12-28T15:18:33;9.25;;;5.88;;
59516;SDS011;45342;42.662;27.718;2023-12-28T15:20:59;10.55;;;6.53;;
59516;SDS011;45342;42.662;27.718;2023-12-28T15:23:25;9.05;;;6.07;;